createdAt,value
2018-12-20T00:00:18.172Z,21.80
2018-12-20T00:02:45.653Z,21.05
2018-12-20T00:05:13.088Z,21.45
2018-12-20T00:07:40.551Z,21.93
2018-12-20T00:10:08.058Z,22.27
2018-12-20T00:12:35.516Z,21.65
2018-12-20T00:15:03.372Z,21.70
2018-12-20T00:17:36.602Z,21.40
2018-12-20T00:20:05.649Z,22.25
2018-12-20T00:22:33.198Z,20.27
2018-12-20T00:25:00.654Z,21.75
2018-12-20T00:27:28.194Z,20.62
2018-12-20T00:29:55.622Z,21.97
2018-12-20T00:32:23.075Z,21.90
2018-12-20T00:34:50.595Z,22.15
2018-12-20T00:37:18.114Z,22.40
2018-12-20T00:39:45.586Z,22.75
2018-12-20T00:42:13.058Z,21.95
2018-12-20T00:44:40.548Z,22.07
2018-12-20T00:47:08.127Z,22.00
2018-12-20T00:49:35.613Z,21.97
2018-12-20T00:52:03.064Z,22.05
2018-12-20T00:54:30.666Z,22.40
2018-12-20T00:56:58.119Z,22.15
2018-12-20T00:59:25.562Z,21.77
2018-12-20T01:01:53.351Z,23.12
2018-12-20T01:04:20.844Z,21.80
2018-12-20T01:06:48.266Z,22.25
2018-12-20T01:09:15.708Z,22.45
2018-12-20T01:11:43.371Z,23.25
2018-12-20T01:14:11.276Z,22.95
2018-12-20T01:16:38.759Z,23.38
2018-12-20T01:19:06.246Z,23.95
2018-12-20T01:21:33.731Z,23.87
2018-12-20T01:24:01.298Z,22.75
2018-12-20T01:26:28.819Z,23.70
2018-12-20T01:28:56.424Z,23.62
2018-12-20T01:31:23.990Z,23.07
2018-12-20T01:33:51.430Z,22.95
2018-12-20T01:36:18.969Z,23.38
2018-12-20T01:38:46.475Z,23.35
2018-12-20T01:41:13.980Z,23.30
2018-12-20T01:43:41.418Z,24.70
2018-12-20T01:46:08.861Z,25.92
2018-12-20T01:48:36.474Z,25.40
2018-12-20T01:51:04.171Z,23.60
2018-12-20T01:53:31.676Z,25.50
2018-12-20T01:55:59.206Z,24.67
2018-12-20T01:58:26.661Z,24.82
2018-12-20T02:00:54.144Z,25.55
2018-12-20T02:03:21.641Z,25.35
2018-12-20T02:05:49.180Z,25.97
2018-12-20T02:08:16.627Z,25.80
2018-12-20T02:10:44.071Z,26.50
2018-12-20T02:13:11.509Z,25.65
2018-12-20T02:15:38.940Z,26.27
2018-12-20T02:18:06.574Z,24.95
2018-12-20T02:20:34.122Z,25.95
2018-12-20T02:23:01.714Z,27.20
2018-12-20T02:25:29.325Z,26.12
2018-12-20T02:27:56.851Z,27.30
2018-12-20T02:30:24.337Z,26.50
2018-12-20T02:32:51.854Z,27.35
2018-12-20T02:35:19.532Z,27.35
2018-12-20T02:37:47.780Z,27.37
2018-12-20T02:40:15.277Z,26.48
2018-12-20T02:42:42.839Z,26.45
2018-12-20T02:45:11.135Z,27.67
2018-12-20T02:47:38.686Z,27.70
2018-12-20T02:50:06.192Z,27.50
2018-12-20T02:52:33.648Z,28.07
2018-12-20T02:55:01.086Z,28.65
2018-12-20T02:57:28.515Z,27.50
2018-12-20T02:59:55.958Z,27.85
2018-12-20T03:02:24.088Z,27.52
2018-12-20T03:04:51.587Z,28.27
2018-12-20T03:07:19.142Z,28.40
2018-12-20T03:09:46.655Z,28.60
2018-12-20T03:12:14.199Z,28.52
2018-12-20T03:14:41.823Z,28.70
2018-12-20T03:17:09.355Z,29.00
2018-12-20T03:19:37.052Z,28.55
2018-12-20T03:22:04.711Z,28.80
2018-12-20T03:24:32.363Z,29.95
2018-12-20T03:26:59.994Z,30.00
2018-12-20T03:29:27.700Z,30.15
2018-12-20T03:31:55.509Z,30.73
2018-12-20T03:34:23.425Z,32.00
2018-12-20T03:36:50.910Z,30.50
2018-12-20T03:39:18.678Z,31.95
2018-12-20T03:41:46.414Z,33.15
2018-12-20T03:44:13.983Z,31.83
2018-12-20T03:46:41.410Z,32.13
2018-12-20T03:49:08.913Z,32.67
2018-12-20T03:51:36.390Z,32.15
2018-12-20T03:54:04.283Z,32.17
2018-12-20T03:56:31.793Z,33.35
2018-12-20T03:59:00.156Z,32.80
2018-12-20T04:01:27.734Z,33.30
2018-12-20T04:03:55.321Z,34.23
2018-12-20T04:06:22.946Z,34.65
2018-12-20T04:08:50.463Z,34.88
2018-12-20T04:11:18.126Z,33.30
2018-12-20T04:13:45.926Z,32.80
2018-12-20T04:16:13.444Z,32.98
2018-12-20T04:18:41.477Z,33.55
2018-12-20T04:21:09.301Z,32.90
2018-12-20T04:23:36.855Z,32.75
2018-12-20T04:26:04.377Z,31.93
2018-12-20T04:28:32.296Z,30.97
2018-12-20T04:30:59.936Z,31.68
2018-12-20T04:33:27.546Z,32.35
2018-12-20T04:35:55.557Z,32.70
2018-12-20T04:38:23.095Z,31.12
2018-12-20T04:40:50.724Z,31.50
2018-12-20T04:43:18.218Z,31.68
2018-12-20T04:45:46.834Z,32.17
2018-12-20T04:48:15.611Z,33.48
2018-12-20T04:50:43.313Z,33.05
2018-12-20T04:53:11.022Z,34.50
2018-12-20T04:55:38.487Z,31.50
2018-12-20T04:58:06.435Z,31.10
2018-12-20T05:00:34.079Z,32.35
2018-12-20T05:03:01.632Z,33.00
2018-12-20T05:05:29.244Z,31.52
2018-12-20T05:07:56.696Z,33.50
2018-12-20T05:10:24.193Z,34.00
2018-12-20T05:12:51.822Z,33.70
2018-12-20T05:15:19.379Z,34.05
2018-12-20T05:17:46.950Z,33.78
2018-12-20T05:20:14.613Z,33.55
2018-12-20T05:22:42.220Z,32.90
2018-12-20T05:25:09.802Z,33.50
2018-12-20T05:27:37.239Z,32.70
2018-12-20T05:30:07.375Z,33.65
2018-12-20T05:32:34.993Z,34.30
2018-12-20T05:35:02.745Z,33.80
2018-12-20T05:37:30.322Z,34.37
2018-12-20T05:39:57.919Z,34.40
2018-12-20T05:42:25.500Z,35.00
2018-12-20T05:44:53.221Z,35.50
2018-12-20T05:47:20.688Z,35.80
2018-12-20T05:49:48.208Z,35.20
2018-12-20T05:52:15.767Z,35.53
2018-12-20T05:54:43.475Z,33.90
2018-12-20T05:57:11.276Z,33.80
2018-12-20T05:59:38.855Z,33.73
2018-12-20T06:02:06.316Z,33.65
2018-12-20T06:04:33.926Z,33.95
2018-12-20T06:07:01.467Z,34.23
2018-12-20T06:09:29.097Z,35.03
2018-12-20T06:11:56.630Z,34.05
2018-12-20T06:14:24.147Z,35.15
2018-12-20T06:16:51.614Z,34.10
2018-12-20T06:19:19.073Z,33.78
2018-12-20T06:21:46.598Z,33.98
2018-12-20T06:24:14.052Z,33.80
2018-12-20T06:26:41.494Z,34.90
2018-12-20T06:29:08.967Z,35.23
2018-12-20T06:31:36.891Z,33.43
2018-12-20T06:34:04.326Z,33.88
2018-12-20T06:36:31.782Z,35.58
2018-12-20T06:38:59.241Z,34.43
2018-12-20T06:41:26.677Z,34.13
2018-12-20T06:43:54.116Z,34.50
2018-12-20T06:46:21.655Z,34.00
2018-12-20T06:48:49.198Z,35.70
2018-12-20T06:51:16.654Z,34.27
2018-12-20T06:53:44.082Z,34.75
2018-12-20T06:56:11.544Z,33.90
2018-12-20T06:58:38.980Z,35.08
2018-12-20T07:01:06.422Z,36.68
2018-12-20T07:03:33.889Z,36.17
2018-12-20T07:06:01.343Z,36.70
2018-12-20T07:08:29.411Z,36.05
2018-12-20T07:10:56.845Z,36.88
2018-12-20T07:13:24.295Z,35.40
2018-12-20T07:15:51.755Z,34.92
2018-12-20T07:18:19.191Z,35.95
2018-12-20T07:20:46.661Z,36.53
2018-12-20T07:23:14.124Z,37.70
2018-12-20T07:25:41.793Z,36.08
2018-12-20T07:28:09.257Z,35.70
2018-12-20T07:30:36.700Z,36.75
2018-12-20T07:33:04.156Z,36.63
2018-12-20T07:35:31.603Z,37.67
2018-12-20T07:37:59.050Z,37.23
2018-12-20T07:40:26.482Z,35.67
2018-12-20T07:42:54.086Z,36.10
2018-12-20T07:45:21.506Z,37.42
2018-12-20T07:47:48.974Z,36.85
2018-12-20T07:50:16.422Z,38.23
2018-12-20T07:52:43.875Z,38.38
2018-12-20T07:55:11.321Z,38.15
2018-12-20T07:57:38.854Z,38.83
2018-12-20T08:00:07.169Z,38.23
2018-12-20T08:02:34.643Z,38.65
2018-12-20T08:05:02.129Z,35.98
2018-12-20T08:07:29.622Z,37.67
2018-12-20T08:09:57.950Z,37.80
2018-12-20T08:12:25.375Z,37.78
2018-12-20T08:14:52.840Z,36.63
2018-12-20T08:17:20.283Z,36.68
2018-12-20T08:19:47.910Z,38.45
2018-12-20T08:22:15.361Z,36.88
2018-12-20T08:24:42.783Z,37.70
2018-12-20T08:27:10.258Z,35.68
2018-12-20T08:29:37.703Z,36.63
2018-12-20T08:32:05.150Z,36.88
2018-12-20T08:34:32.599Z,36.03
2018-12-20T08:37:00.043Z,36.23
2018-12-20T08:39:27.499Z,36.55
2018-12-20T08:41:54.946Z,35.20
2018-12-20T08:44:22.377Z,37.00
2018-12-20T08:46:54.331Z,35.85
2018-12-20T08:49:19.402Z,33.93
2018-12-20T08:51:49.188Z,36.50
2018-12-20T08:54:16.284Z,34.03
2018-12-20T08:56:43.727Z,34.13
2018-12-20T08:59:11.179Z,34.53
2018-12-20T09:01:38.623Z,33.53
2018-12-20T09:04:06.125Z,33.65
2018-12-20T09:06:33.550Z,35.05
2018-12-20T09:09:01.003Z,33.00
2018-12-20T09:11:28.452Z,33.75
2018-12-20T09:13:55.902Z,33.75
2018-12-20T09:16:23.362Z,33.97
2018-12-20T09:18:50.803Z,33.80
2018-12-20T09:21:18.233Z,33.50
2018-12-20T09:23:45.679Z,35.45
2018-12-20T09:26:13.112Z,35.80
2018-12-20T09:28:40.547Z,34.98
2018-12-20T09:31:08.008Z,35.17
2018-12-20T09:33:35.457Z,34.85
2018-12-20T09:36:02.919Z,34.63
2018-12-20T09:38:30.768Z,34.67
2018-12-20T09:40:58.218Z,34.50
2018-12-20T09:43:25.668Z,34.92
2018-12-20T09:45:53.126Z,33.53
2018-12-20T09:48:20.574Z,34.45
2018-12-20T09:50:48.022Z,34.83
2018-12-20T09:53:15.467Z,35.35
2018-12-20T09:55:42.918Z,36.00
2018-12-20T09:58:10.392Z,34.53
2018-12-20T10:00:37.851Z,33.15
2018-12-20T10:03:05.292Z,33.83
2018-12-20T10:05:32.756Z,34.78
2018-12-20T10:08:00.216Z,34.18
2018-12-20T10:10:27.678Z,32.60
2018-12-20T10:12:55.291Z,33.60
2018-12-20T10:15:22.750Z,32.83
2018-12-20T10:17:50.184Z,33.23
2018-12-20T10:20:17.642Z,34.38
2018-12-20T10:22:45.095Z,32.88
2018-12-20T10:25:12.551Z,33.30
2018-12-20T10:27:40.035Z,33.50
2018-12-20T10:30:08.394Z,34.05
2018-12-20T10:32:35.856Z,32.25
2018-12-20T10:35:03.715Z,33.70
2018-12-20T10:37:31.158Z,34.53
2018-12-20T10:39:58.594Z,33.17
2018-12-20T10:42:26.032Z,33.67
2018-12-20T10:44:53.504Z,35.25
2018-12-20T10:47:28.799Z,34.53
2018-12-20T10:49:52.679Z,34.85
2018-12-20T10:52:20.151Z,33.55
2018-12-20T10:54:47.582Z,34.78
2018-12-20T10:57:15.031Z,33.30
2018-12-20T10:59:43.102Z,31.27
2018-12-20T11:02:16.197Z,33.42
2018-12-20T11:04:49.222Z,32.63
2018-12-20T11:07:22.291Z,32.45
2018-12-20T11:09:55.517Z,33.18
2018-12-20T11:12:26.181Z,34.00
2018-12-20T11:14:54.533Z,32.75
2018-12-20T11:17:21.978Z,31.27
2018-12-20T11:19:49.443Z,34.50
2018-12-20T11:22:16.886Z,32.90
2018-12-20T11:24:44.341Z,34.63
2018-12-20T11:27:11.806Z,32.65
2018-12-20T11:29:39.233Z,33.60
2018-12-20T11:32:06.690Z,33.23
2018-12-20T11:34:34.159Z,32.38
2018-12-20T11:37:02.525Z,33.02
2018-12-20T11:39:29.970Z,34.73
2018-12-20T11:41:57.430Z,34.70
2018-12-20T11:44:24.886Z,32.98
2018-12-20T11:46:52.332Z,32.33
2018-12-20T11:49:19.766Z,32.53
2018-12-20T11:51:47.218Z,33.40
2018-12-20T11:54:14.661Z,33.18
2018-12-20T11:56:44.051Z,33.90
2018-12-20T11:59:12.793Z,32.10
2018-12-20T12:01:40.355Z,33.92
2018-12-20T12:04:07.811Z,33.40
2018-12-20T12:06:35.546Z,31.75
2018-12-20T12:09:04.919Z,33.00
2018-12-20T12:11:32.370Z,33.45
2018-12-20T12:13:59.830Z,33.25
2018-12-20T12:16:27.277Z,34.20
2018-12-20T12:18:54.741Z,32.07
2018-12-20T12:21:22.214Z,33.05
2018-12-20T12:23:49.668Z,30.75
2018-12-20T12:26:17.122Z,33.53
2018-12-20T12:28:44.578Z,31.27
2018-12-20T12:31:12.042Z,33.28
2018-12-20T12:33:39.497Z,32.00
2018-12-20T12:36:07.929Z,32.98
2018-12-20T12:38:35.388Z,32.30
2018-12-20T12:41:02.927Z,33.38
2018-12-20T12:43:30.359Z,32.20
2018-12-20T12:45:57.811Z,32.95
2018-12-20T12:48:25.254Z,32.85
2018-12-20T12:50:52.731Z,34.00
2018-12-20T12:53:20.195Z,31.75
2018-12-20T12:55:47.651Z,32.60
2018-12-20T12:58:15.101Z,31.77
2018-12-20T13:00:42.543Z,30.55
2018-12-20T13:03:09.995Z,31.20
2018-12-20T13:05:37.431Z,29.90
2018-12-20T13:08:04.891Z,27.58
2018-12-20T13:10:32.344Z,27.58
2018-12-20T13:12:59.846Z,27.95
2018-12-20T13:15:27.290Z,27.90
2018-12-20T13:17:54.787Z,30.27
2018-12-20T13:20:22.219Z,28.95
2018-12-20T13:22:49.659Z,29.57
2018-12-20T13:25:17.122Z,27.73
2018-12-20T13:27:44.582Z,28.12
2018-12-20T13:30:12.031Z,27.47
2018-12-20T13:32:39.466Z,27.85
2018-12-20T13:35:06.918Z,26.60
2018-12-20T13:37:34.380Z,27.30
2018-12-20T13:40:01.839Z,25.95
2018-12-20T13:42:29.286Z,25.92
2018-12-20T13:44:56.834Z,25.37
2018-12-20T13:47:24.278Z,27.60
2018-12-20T13:49:52.629Z,23.60
2018-12-20T13:52:20.242Z,23.70
2018-12-20T13:54:47.701Z,25.17
2018-12-20T13:57:15.158Z,25.32
2018-12-20T13:59:42.629Z,23.75
2018-12-20T14:02:10.586Z,24.72
2018-12-20T14:04:38.041Z,23.20
2018-12-20T14:07:05.496Z,24.02
2018-12-20T14:09:32.959Z,24.75
2018-12-20T14:12:00.398Z,24.33
2018-12-20T14:14:27.842Z,24.65
2018-12-20T14:16:55.278Z,24.92
2018-12-20T14:19:22.759Z,27.25
2018-12-20T14:21:50.232Z,26.93
2018-12-20T14:24:17.704Z,26.60
2018-12-20T14:26:45.135Z,28.07
2018-12-20T14:29:12.595Z,26.52
2018-12-20T14:31:40.042Z,26.10
2018-12-20T14:34:07.558Z,26.33
2018-12-20T14:36:35.023Z,25.65
2018-12-20T14:39:02.603Z,26.85
2018-12-20T14:41:30.056Z,26.62
2018-12-20T14:43:57.490Z,28.80
2018-12-20T14:46:25.006Z,28.90
2018-12-20T14:48:52.451Z,28.10
2018-12-20T14:51:19.891Z,27.90
2018-12-20T14:53:47.334Z,27.05
2018-12-20T14:56:14.783Z,28.60
2018-12-20T14:58:42.219Z,28.57
2018-12-20T15:01:09.675Z,28.95
2018-12-20T15:03:37.117Z,25.80
2018-12-20T15:06:04.574Z,26.30
2018-12-20T15:08:32.013Z,25.05
2018-12-20T15:10:59.474Z,25.08
2018-12-20T15:13:26.931Z,25.90
2018-12-20T15:15:54.402Z,28.87
2018-12-20T15:18:21.956Z,29.70
2018-12-20T15:20:49.499Z,26.90
2018-12-20T15:23:16.951Z,32.88
2018-12-20T15:25:45.371Z,26.80
2018-12-20T15:28:13.065Z,26.97
2018-12-20T15:30:40.649Z,28.40
2018-12-20T15:33:08.138Z,26.10
2018-12-20T15:35:35.577Z,25.57
2018-12-20T15:38:03.046Z,24.60
2018-12-20T15:40:30.510Z,24.63
2018-12-20T15:42:57.958Z,23.97
2018-12-20T15:45:25.411Z,23.67
2018-12-20T15:47:52.858Z,23.25
2018-12-20T15:50:20.314Z,24.00
2018-12-20T15:52:47.760Z,25.08
2018-12-20T15:55:15.235Z,23.43
2018-12-20T15:57:42.795Z,26.50
2018-12-20T16:00:10.447Z,24.27
2018-12-20T16:02:37.979Z,24.57
2018-12-20T16:05:05.743Z,22.25
2018-12-20T16:07:33.210Z,21.20
2018-12-20T16:10:00.658Z,23.20
2018-12-20T16:12:28.111Z,22.10
2018-12-20T16:14:55.742Z,22.50
2018-12-20T16:17:23.198Z,22.60
2018-12-20T16:19:50.640Z,22.37
2018-12-20T16:22:18.101Z,22.30
2018-12-20T16:24:45.542Z,23.00
2018-12-20T16:27:13.090Z,21.95
2018-12-20T16:29:40.527Z,24.15
2018-12-20T16:32:07.986Z,23.67
2018-12-20T16:34:35.467Z,22.83
2018-12-20T16:37:02.922Z,23.32
2018-12-20T16:39:30.354Z,23.35
2018-12-20T16:41:57.814Z,28.70
2018-12-20T16:44:25.304Z,24.75
2018-12-20T16:46:52.739Z,23.55
2018-12-20T16:49:20.174Z,23.02
2018-12-20T16:51:47.621Z,23.27
2018-12-20T16:54:15.074Z,22.27
2018-12-20T16:56:42.521Z,23.15
2018-12-20T16:59:09.986Z,22.13
2018-12-20T17:01:37.451Z,22.90
2018-12-20T17:04:04.910Z,23.45
2018-12-20T17:06:32.358Z,21.75
2018-12-20T17:08:59.802Z,23.18
2018-12-20T17:11:27.267Z,23.10
2018-12-20T17:13:54.734Z,23.52
2018-12-20T17:16:22.178Z,22.87
2018-12-20T17:18:49.644Z,23.40
2018-12-20T17:21:17.101Z,23.52
2018-12-20T17:23:44.550Z,25.30
2018-12-20T17:26:12.020Z,23.87
2018-12-20T17:28:39.622Z,23.47
2018-12-20T17:31:07.075Z,24.95
2018-12-20T17:33:34.539Z,24.30
2018-12-20T17:36:01.986Z,24.98
2018-12-20T17:38:29.424Z,24.05
2018-12-20T17:40:56.859Z,24.85
2018-12-20T17:43:24.322Z,24.50
2018-12-20T17:45:51.796Z,25.85
2018-12-20T17:48:19.239Z,27.73
2018-12-20T17:50:46.710Z,25.32
2018-12-20T17:53:14.162Z,25.87
2018-12-20T17:55:44.912Z,25.57
2018-12-20T17:58:11.091Z,25.40
2018-12-20T18:00:38.529Z,25.82
2018-12-20T18:03:06.201Z,26.45
2018-12-20T18:05:33.726Z,29.92
2018-12-20T18:08:01.156Z,27.55
2018-12-20T18:10:28.621Z,26.85
2018-12-20T18:12:56.331Z,27.62
2018-12-20T18:15:23.817Z,25.77
2018-12-20T18:17:51.297Z,27.35
2018-12-20T18:20:18.750Z,27.62
2018-12-20T18:22:46.548Z,26.93
2018-12-20T18:25:13.981Z,25.77
2018-12-20T18:27:41.453Z,26.70
2018-12-20T18:30:09.624Z,26.07
2018-12-20T18:32:37.111Z,25.40
2018-12-20T18:35:05.615Z,26.87
2018-12-20T18:37:34.007Z,25.08
2018-12-20T18:40:01.451Z,22.82
2018-12-20T18:42:28.898Z,23.30
2018-12-20T18:44:57.646Z,23.45
2018-12-20T18:47:25.111Z,24.00
2018-12-20T18:49:52.547Z,23.40
2018-12-20T18:52:20.123Z,24.60
2018-12-20T18:54:47.565Z,27.45
2018-12-20T18:57:15.026Z,22.93
2018-12-20T18:59:42.560Z,22.02
2018-12-20T19:02:10.023Z,23.15
2018-12-20T19:04:37.491Z,23.77
2018-12-20T19:07:04.946Z,22.30
2018-12-20T19:09:32.906Z,22.87
2018-12-20T19:12:00.373Z,22.22
2018-12-20T19:14:28.232Z,23.90
2018-12-20T19:16:55.714Z,24.45
2018-12-20T19:19:23.239Z,24.02
2018-12-20T19:21:50.699Z,24.00
2018-12-20T19:24:18.862Z,22.87
2018-12-20T19:26:46.309Z,22.80
2018-12-20T19:29:13.756Z,26.15
2018-12-20T19:31:41.253Z,26.12
2018-12-20T19:34:09.456Z,24.75
2018-12-20T19:36:36.912Z,24.32
2018-12-20T19:39:07.770Z,24.32
2018-12-20T19:41:35.246Z,23.20
2018-12-20T19:44:02.700Z,23.35
2018-12-20T19:46:30.159Z,24.30
2018-12-20T19:48:57.603Z,24.65
2018-12-20T19:51:25.041Z,23.98
2018-12-20T19:53:52.490Z,24.10
2018-12-20T19:56:20.326Z,21.73
2018-12-20T19:58:48.699Z,21.15
2018-12-20T20:01:16.210Z,21.35
2018-12-20T20:03:43.650Z,23.70
2018-12-20T20:06:11.124Z,25.07
2018-12-20T20:08:38.570Z,27.05
2018-12-20T20:11:06.019Z,23.95
2018-12-20T20:13:33.506Z,19.60
2018-12-20T20:16:01.042Z,21.45
2018-12-20T20:18:28.490Z,25.70
2018-12-20T20:20:55.982Z,21.97
2018-12-20T20:23:23.411Z,22.80
2018-12-20T20:25:50.851Z,21.27
2018-12-20T20:28:18.288Z,21.95
2018-12-20T20:30:49.792Z,25.37
2018-12-20T20:33:17.243Z,22.02
2018-12-20T20:35:44.690Z,19.40
2018-12-20T20:38:12.141Z,17.23
2018-12-20T20:40:39.585Z,18.50
2018-12-20T20:43:07.046Z,19.55
2018-12-20T20:45:34.502Z,18.90
2018-12-20T20:48:05.946Z,20.25
2018-12-20T20:50:33.726Z,19.25
2018-12-20T20:53:01.188Z,18.40
2018-12-20T20:55:28.632Z,20.43
2018-12-20T20:57:56.086Z,16.60
2018-12-20T21:00:24.903Z,16.42
2018-12-20T21:02:52.493Z,15.90
2018-12-20T21:05:19.940Z,17.17
2018-12-20T21:07:47.410Z,17.65
2018-12-20T21:10:14.869Z,18.65
2018-12-20T21:12:42.320Z,19.23
2018-12-20T21:15:09.883Z,19.20
2018-12-20T21:17:37.339Z,18.70
2018-12-20T21:20:06.689Z,20.00
2018-12-20T21:22:34.127Z,20.40
2018-12-20T21:25:01.598Z,20.08
2018-12-20T21:27:29.047Z,19.02
2018-12-20T21:29:56.518Z,19.75
2018-12-20T21:32:24.007Z,20.10
2018-12-20T21:34:51.467Z,20.85
2018-12-20T21:37:18.904Z,21.53
2018-12-20T21:39:46.369Z,25.75
2018-12-20T21:42:13.934Z,25.35
2018-12-20T21:44:41.419Z,22.25
2018-12-20T21:47:08.845Z,21.57
2018-12-20T21:49:36.298Z,21.45
2018-12-20T21:52:03.992Z,25.10
2018-12-20T21:54:31.443Z,28.27
2018-12-20T21:56:58.939Z,25.00
2018-12-20T21:59:26.382Z,24.30
2018-12-20T22:01:53.823Z,23.73
2018-12-20T22:04:21.265Z,25.20
2018-12-20T22:06:48.692Z,25.45
2018-12-20T22:09:16.151Z,23.40
2018-12-20T22:11:43.603Z,23.80
2018-12-20T22:14:11.056Z,23.32
2018-12-20T22:16:38.490Z,22.67
2018-12-20T22:19:05.934Z,23.98
2018-12-20T22:21:33.382Z,23.57
2018-12-20T22:24:00.847Z,22.77
2018-12-20T22:26:28.319Z,22.77
2018-12-20T22:28:55.796Z,21.80
2018-12-20T22:31:23.237Z,22.10
2018-12-20T22:33:50.674Z,23.30
2018-12-20T22:36:18.155Z,24.25
2018-12-20T22:38:45.655Z,25.05
2018-12-20T22:41:13.141Z,24.90
2018-12-20T22:43:40.607Z,24.72
2018-12-20T22:46:08.135Z,22.70
2018-12-20T22:48:35.569Z,23.00
2018-12-20T22:51:03.027Z,24.50
2018-12-20T22:53:31.251Z,23.15
2018-12-20T22:55:58.727Z,24.12
2018-12-20T22:58:26.186Z,23.22
2018-12-20T23:00:55.108Z,24.43
2018-12-20T23:03:22.567Z,25.27
2018-12-20T23:05:50.006Z,25.00
2018-12-20T23:08:17.462Z,27.50
2018-12-20T23:10:44.932Z,27.67
2018-12-20T23:13:13.005Z,27.00
2018-12-20T23:15:40.472Z,26.85
2018-12-20T23:18:07.918Z,28.87
2018-12-20T23:20:35.442Z,26.02
2018-12-20T23:23:02.899Z,26.85
2018-12-20T23:25:30.351Z,27.77
2018-12-20T23:27:57.787Z,31.55
2018-12-20T23:30:25.248Z,28.07
2018-12-20T23:32:52.687Z,29.53
2018-12-20T23:35:20.157Z,27.27
2018-12-20T23:37:47.600Z,25.57
2018-12-20T23:40:15.043Z,28.15
2018-12-20T23:42:42.496Z,29.15
2018-12-20T23:45:09.943Z,27.95
2018-12-20T23:47:37.376Z,27.30
2018-12-20T23:50:05.646Z,27.25
2018-12-20T23:52:33.079Z,26.90
2018-12-20T23:55:00.535Z,27.60
2018-12-20T23:57:27.973Z,27.20
2018-12-20T23:59:55.414Z,30.27
